sensor_id;sensor_type;location;lat;lon;timestamp;pressure;altitude;pressure_sealevel;temperature
67599;BMP280;62026;39.230;9.122;2023-09-12T00:00:12;100968.53;;;25.47
67599;BMP280;62026;39.230;9.122;2023-09-12T00:02:39;100967.75;;;25.46
67599;BMP280;62026;39.230;9.122;2023-09-12T00:05:05;100965.81;;;25.47
67599;BMP280;62026;39.230;9.122;2023-09-12T00:07:32;100969.91;;;25.44
67599;BMP280;62026;39.230;9.122;2023-09-12T00:09:58;100964.03;;;25.42
67599;BMP280;62026;39.230;9.122;2023-09-12T00:12:24;100962.94;;;25.43
67599;BMP280;62026;39.230;9.122;2023-09-12T00:14:50;100957.03;;;25.41
67599;BMP280;62026;39.230;9.122;2023-09-12T00:17:17;100954.97;;;25.38
67599;BMP280;62026;39.230;9.122;2023-09-12T00:19:43;100955.56;;;25.35
67599;BMP280;62026;39.230;9.122;2023-09-12T00:22:09;100949.81;;;25.37
67599;BMP280;62026;39.230;9.122;2023-09-12T00:24:35;100941.88;;;25.32
67599;BMP280;62026;39.230;9.122;2023-09-12T00:27:01;100948.38;;;25.31
67599;BMP280;62026;39.230;9.122;2023-09-12T00:29:27;100946.47;;;25.31
67599;BMP280;62026;39.230;9.122;2023-09-12T00:31:53;100948.38;;;25.31
67599;BMP280;62026;39.230;9.122;2023-09-12T00:34:18;100943.28;;;25.29
67599;BMP280;62026;39.230;9.122;2023-09-12T00:36:44;100939.78;;;25.29
67599;BMP280;62026;39.230;9.122;2023-09-12T00:39:10;100931.66;;;25.29
67599;BMP280;62026;39.230;9.122;2023-09-12T00:41:36;100929.75;;;25.29
67599;BMP280;62026;39.230;9.122;2023-09-12T00:44:02;100930.38;;;25.26
67599;BMP280;62026;39.230;9.122;2023-09-12T00:46:29;100933.09;;;25.26
67599;BMP280;62026;39.230;9.122;2023-09-12T00:48:57;100926.56;;;25.27
67599;BMP280;62026;39.230;9.122;2023-09-12T00:51:27;100930.38;;;25.26
67599;BMP280;62026;39.230;9.122;2023-09-12T00:53:53;100926.56;;;25.27
67599;BMP280;62026;39.230;9.122;2023-09-12T00:56:21;100924.34;;;25.29
67599;BMP280;62026;39.230;9.122;2023-09-12T00:58:47;100925.94;;;25.30
67599;BMP280;62026;39.230;9.122;2023-09-12T01:01:17;100920.69;;;25.25
67599;BMP280;62026;39.230;9.122;2023-09-12T01:03:43;100920.19;;;25.23
67599;BMP280;62026;39.230;9.122;2023-09-12T01:06:10;100920.97;;;25.24
67599;BMP280;62026;39.230;9.122;2023-09-12T01:08:36;100921.91;;;25.19
67599;BMP280;62026;39.230;9.122;2023-09-12T01:11:04;100905.19;;;25.17
67599;BMP280;62026;39.230;9.122;2023-09-12T01:13:30;100904.69;;;25.15
67599;BMP280;62026;39.230;9.122;2023-09-12T01:15:56;100903.09;;;25.14
67599;BMP280;62026;39.230;9.122;2023-09-12T01:18:22;100900.72;;;25.12
67599;BMP280;62026;39.230;9.122;2023-09-12T01:21:27;100906.44;;;25.11
67599;BMP280;62026;39.230;9.122;2023-09-12T01:27:37;100897.78;;;25.00
67599;BMP280;62026;39.230;9.122;2023-09-12T01:30:07;100891.06;;;24.98
67599;BMP280;62026;39.230;9.122;2023-09-12T01:32:35;100896.47;;;24.98
67599;BMP280;62026;39.230;9.122;2023-09-12T01:35:02;100891.88;;;24.98
67599;BMP280;62026;39.230;9.122;2023-09-12T01:37:31;100902.50;;;24.95
67599;BMP280;62026;39.230;9.122;2023-09-12T01:39:58;100907.91;;;24.95
67599;BMP280;62026;39.230;9.122;2023-09-12T01:42:29;100911.06;;;24.97
67599;BMP280;62026;39.230;9.122;2023-09-12T01:44:56;100900.28;;;24.97
67599;BMP280;62026;39.230;9.122;2023-09-12T01:47:25;100898.06;;;24.99
67599;BMP280;62026;39.230;9.122;2023-09-12T01:49:56;100902.50;;;24.95
67599;BMP280;62026;39.230;9.122;2023-09-12T01:52:26;100904.06;;;24.96
67599;BMP280;62026;39.230;9.122;2023-09-12T01:54:53;100901.06;;;24.97
67599;BMP280;62026;39.230;9.122;2023-09-12T01:57:20;100899.28;;;24.93
67599;BMP280;62026;39.230;9.122;2023-09-12T01:59:48;100906.41;;;24.89
67599;BMP280;62026;39.230;9.122;2023-09-12T02:02:18;100905.94;;;24.87
67599;BMP280;62026;39.230;9.122;2023-09-12T02:05:24;100902.72;;;24.85
67599;BMP280;62026;39.230;9.122;2023-09-12T02:07:50;100903.66;;;24.80
67599;BMP280;62026;39.230;9.122;2023-09-12T02:10:16;100903.31;;;24.82
67599;BMP280;62026;39.230;9.122;2023-09-12T02:12:43;100899.84;;;24.81
67599;BMP280;62026;39.230;9.122;2023-09-12T02:15:09;100899.66;;;24.78
67599;BMP280;62026;39.230;9.122;2023-09-12T02:17:35;100894.06;;;24.74
67599;BMP280;62026;39.230;9.122;2023-09-12T02:20:01;100886.88;;;24.69
67599;BMP280;62026;39.230;9.122;2023-09-12T02:22:31;100890.19;;;24.66
67599;BMP280;62026;39.230;9.122;2023-09-12T02:24:57;100890.97;;;24.67
67599;BMP280;62026;39.230;9.122;2023-09-12T02:27:23;100895.56;;;24.66
67599;BMP280;62026;39.230;9.122;2023-09-12T02:29:50;100900.00;;;24.62
67599;BMP280;62026;39.230;9.122;2023-09-12T02:32:16;100887.56;;;24.61
67599;BMP280;62026;39.230;9.122;2023-09-12T02:34:41;100892.50;;;24.59
67599;BMP280;62026;39.230;9.122;2023-09-12T02:37:08;100888.81;;;24.55
67599;BMP280;62026;39.230;9.122;2023-09-12T02:39:34;100891.59;;;24.50
67599;BMP280;62026;39.230;9.122;2023-09-12T02:41:59;100892.22;;;24.47
67599;BMP280;62026;39.230;9.122;2023-09-12T02:44:26;100890.03;;;24.49
67599;BMP280;62026;39.230;9.122;2023-09-12T02:46:52;100896.53;;;24.48
67599;BMP280;62026;39.230;9.122;2023-09-12T02:49:18;100897.13;;;24.45
67599;BMP280;62026;39.230;9.122;2023-09-12T02:51:45;100900.44;;;24.42
67599;BMP280;62026;39.230;9.122;2023-09-12T02:54:11;100897.22;;;24.40
67599;BMP280;62026;39.230;9.122;2023-09-12T02:56:37;100893.44;;;24.41
67599;BMP280;62026;39.230;9.122;2023-09-12T02:59:03;100896.72;;;24.38
67599;BMP280;62026;39.230;9.122;2023-09-12T03:01:30;100898.63;;;24.38
67599;BMP280;62026;39.230;9.122;2023-09-12T03:03:57;100902.41;;;24.36
67599;BMP280;62026;39.230;9.122;2023-09-12T03:06:24;100901.63;;;24.36
67599;BMP280;62026;39.230;9.122;2023-09-12T03:08:50;100898.44;;;24.34
67599;BMP280;62026;39.230;9.122;2023-09-12T03:11:16;100898.63;;;24.38
67599;BMP280;62026;39.230;9.122;2023-09-12T03:13:42;100900.03;;;24.35
67599;BMP280;62026;39.230;9.122;2023-09-12T03:16:14;100906.25;;;24.35
67599;BMP280;62026;39.230;9.122;2023-09-12T03:18:41;100898.84;;;24.41
67599;BMP280;62026;39.230;9.122;2023-09-12T03:21:07;100906.63;;;24.43
67599;BMP280;62026;39.230;9.122;2023-09-12T03:23:33;100907.00;;;24.36
67599;BMP280;62026;39.230;9.122;2023-09-12T03:26:06;100913.53;;;24.35
67599;BMP280;62026;39.230;9.122;2023-09-12T03:28:33;100913.03;;;24.33
67599;BMP280;62026;39.230;9.122;2023-09-12T03:31:12;100915.22;;;24.31
67599;BMP280;62026;39.230;9.122;2023-09-12T03:33:40;100919.81;;;24.30
67599;BMP280;62026;39.230;9.122;2023-09-12T03:36:08;100924.34;;;24.35
67599;BMP280;62026;39.230;9.122;2023-09-12T03:38:35;100921.63;;;24.35
67599;BMP280;62026;39.230;9.122;2023-09-12T03:41:01;100919.00;;;24.30
67599;BMP280;62026;39.230;9.122;2023-09-12T03:43:28;100930.91;;;24.29
67599;BMP280;62026;39.230;9.122;2023-09-12T03:45:54;100932.25;;;24.31
67599;BMP280;62026;39.230;9.122;2023-09-12T03:48:21;100928.44;;;24.32
67599;BMP280;62026;39.230;9.122;2023-09-12T03:50:47;100934.41;;;24.29
67599;BMP280;62026;39.230;9.122;2023-09-12T03:53:14;100939.41;;;24.22
67599;BMP280;62026;39.230;9.122;2023-09-12T03:55:40;100936.91;;;24.26
67599;BMP280;62026;39.230;9.122;2023-09-12T03:58:06;100934.63;;;24.19
67599;BMP280;62026;39.230;9.122;2023-09-12T04:00:33;100925.72;;;24.19
67599;BMP280;62026;39.230;9.122;2023-09-12T04:02:59;100939.22;;;24.19
67599;BMP280;62026;39.230;9.122;2023-09-12T04:05:26;100939.81;;;24.16
67599;BMP280;62026;39.230;9.122;2023-09-12T04:07:53;100939.63;;;24.12
67599;BMP280;62026;39.230;9.122;2023-09-12T04:10:20;100940.41;;;24.13
67599;BMP280;62026;39.230;9.122;2023-09-12T04:12:46;100941.63;;;24.07
67599;BMP280;62026;39.230;9.122;2023-09-12T04:15:13;100947.00;;;24.07
67599;BMP280;62026;39.230;9.122;2023-09-12T04:17:39;100947.22;;;23.97
67599;BMP280;62026;39.230;9.122;2023-09-12T04:20:06;100949.41;;;23.94
67599;BMP280;62026;39.230;9.122;2023-09-12T04:22:33;100954.19;;;23.98
67599;BMP280;62026;39.230;9.122;2023-09-12T04:25:00;100962.28;;;23.98
67599;BMP280;62026;39.230;9.122;2023-09-12T04:27:26;100959.81;;;24.01
67599;BMP280;62026;39.230;9.122;2023-09-12T04:29:52;100964.34;;;24.01
67599;BMP280;62026;39.230;9.122;2023-09-12T04:32:18;100968.00;;;23.96
67599;BMP280;62026;39.230;9.122;2023-09-12T04:34:52;100969.09;;;23.95
67599;BMP280;62026;39.230;9.122;2023-09-12T04:37:18;100970.47;;;23.92
67599;BMP280;62026;39.230;9.122;2023-09-12T04:39:45;100976.47;;;23.89
67599;BMP280;62026;39.230;9.122;2023-09-12T04:42:12;100976.53;;;23.84
67599;BMP280;62026;39.230;9.122;2023-09-12T04:44:41;100982.03;;;23.79
67599;BMP280;62026;39.230;9.122;2023-09-12T04:47:08;100978.31;;;23.75
67599;BMP280;62026;39.230;9.122;2023-09-12T04:49:35;100984.63;;;23.71
67599;BMP280;62026;39.230;9.122;2023-09-12T04:52:01;100982.97;;;23.70
67599;BMP280;62026;39.230;9.122;2023-09-12T04:54:27;100982.78;;;23.66
67599;BMP280;62026;39.230;9.122;2023-09-12T04:56:53;100990.06;;;23.66
67599;BMP280;62026;39.230;9.122;2023-09-12T04:59:19;100987.69;;;23.64
67599;BMP280;62026;39.230;9.122;2023-09-12T05:01:45;100985.53;;;23.61
67599;BMP280;62026;39.230;9.122;2023-09-12T05:04:11;100986.66;;;23.60
67599;BMP280;62026;39.230;9.122;2023-09-12T05:06:37;100994.66;;;23.65
67599;BMP280;62026;39.230;9.122;2023-09-12T05:09:04;100992.47;;;23.67
67599;BMP280;62026;39.230;9.122;2023-09-12T05:11:31;100999.44;;;23.68
67599;BMP280;62026;39.230;9.122;2023-09-12T05:13:57;100997.88;;;23.67
67599;BMP280;62026;39.230;9.122;2023-09-12T05:16:23;100999.44;;;23.68
67599;BMP280;62026;39.230;9.122;2023-09-12T05:18:49;101008.06;;;23.70
67599;BMP280;62026;39.230;9.122;2023-09-12T05:21:16;101004.56;;;23.70
67599;BMP280;62026;39.230;9.122;2023-09-12T05:23:42;100998.09;;;23.71
67599;BMP280;62026;39.230;9.122;2023-09-12T05:26:08;101012.63;;;23.70
67599;BMP280;62026;39.230;9.122;2023-09-12T05:28:34;101009.09;;;23.74
67599;BMP280;62026;39.230;9.122;2023-09-12T05:31:00;101007.91;;;23.80
67599;BMP280;62026;39.230;9.122;2023-09-12T05:33:27;101014.91;;;23.81
67599;BMP280;62026;39.230;9.122;2023-09-12T05:35:53;101010.31;;;23.82
67599;BMP280;62026;39.230;9.122;2023-09-12T05:38:19;101013.50;;;23.84
67599;BMP280;62026;39.230;9.122;2023-09-12T05:40:46;101017.50;;;23.86
67599;BMP280;62026;39.230;9.122;2023-09-12T05:43:12;101019.63;;;23.89
67599;BMP280;62026;39.230;9.122;2023-09-12T05:45:38;101009.84;;;23.93
67599;BMP280;62026;39.230;9.122;2023-09-12T05:48:04;101009.53;;;23.95
67599;BMP280;62026;39.230;9.122;2023-09-12T05:50:31;101009.97;;;24.02
67599;BMP280;62026;39.230;9.122;2023-09-12T05:52:57;101000.88;;;24.12
67599;BMP280;62026;39.230;9.122;2023-09-12T05:55:23;100983.88;;;24.11
67599;BMP280;62026;39.230;9.122;2023-09-12T05:57:50;100987.38;;;24.12
67599;BMP280;62026;39.230;9.122;2023-09-12T06:00:20;101000.38;;;24.23
67599;BMP280;62026;39.230;9.122;2023-09-12T06:02:49;101002.19;;;24.42
67599;BMP280;62026;39.230;9.122;2023-09-12T06:05:16;101003.19;;;24.46
67599;BMP280;62026;39.230;9.122;2023-09-12T06:07:42;101000.59;;;24.54
67599;BMP280;62026;39.230;9.122;2023-09-12T06:10:09;101002.91;;;24.47
67599;BMP280;62026;39.230;9.122;2023-09-12T06:12:35;101010.78;;;24.57
67599;BMP280;62026;39.230;9.122;2023-09-12T06:15:03;101006.19;;;24.85
67599;BMP280;62026;39.230;9.122;2023-09-12T06:17:30;101003.09;;;25.14
67599;BMP280;62026;39.230;9.122;2023-09-12T06:19:57;101002.16;;;25.32
67599;BMP280;62026;39.230;9.122;2023-09-12T06:22:23;101009.56;;;25.49
67599;BMP280;62026;39.230;9.122;2023-09-12T06:24:50;101012.38;;;25.44
67599;BMP280;62026;39.230;9.122;2023-09-12T06:27:16;101018.22;;;25.37
67599;BMP280;62026;39.230;9.122;2023-09-12T06:29:47;101017.72;;;25.57
67599;BMP280;62026;39.230;9.122;2023-09-12T06:32:15;101016.09;;;25.70
67599;BMP280;62026;39.230;9.122;2023-09-12T06:34:42;101019.72;;;25.96
67599;BMP280;62026;39.230;9.122;2023-09-12T06:37:10;101009.59;;;26.11
67599;BMP280;62026;39.230;9.122;2023-09-12T06:39:36;101017.59;;;26.16
67599;BMP280;62026;39.230;9.122;2023-09-12T06:42:02;101014.00;;;26.37
67599;BMP280;62026;39.230;9.122;2023-09-12T06:44:28;101014.69;;;26.04
67599;BMP280;62026;39.230;9.122;2023-09-12T06:46:54;101025.88;;;26.19
67599;BMP280;62026;39.230;9.122;2023-09-12T06:49:20;101031.25;;;26.59
67599;BMP280;62026;39.230;9.122;2023-09-12T06:51:46;101041.34;;;26.75
67599;BMP280;62026;39.230;9.122;2023-09-12T06:54:12;101038.19;;;26.99
67599;BMP280;62026;39.230;9.122;2023-09-12T06:56:38;101038.69;;;27.01
67599;BMP280;62026;39.230;9.122;2023-09-12T06:59:07;101042.66;;;27.21
67599;BMP280;62026;39.230;9.122;2023-09-12T07:01:33;101044.75;;;27.33
67599;BMP280;62026;39.230;9.122;2023-09-12T07:03:59;101053.78;;;27.62
67599;BMP280;62026;39.230;9.122;2023-09-12T07:06:25;101054.44;;;27.59
67599;BMP280;62026;39.230;9.122;2023-09-12T07:08:51;101056.03;;;27.60
67599;BMP280;62026;39.230;9.122;2023-09-12T07:11:17;101054.44;;;27.59
67599;BMP280;62026;39.230;9.122;2023-09-12T07:13:45;101049.41;;;27.87
67599;BMP280;62026;39.230;9.122;2023-09-12T07:16:12;101055.91;;;28.03
67599;BMP280;62026;39.230;9.122;2023-09-12T07:18:38;101059.22;;;28.09
67599;BMP280;62026;39.230;9.122;2023-09-12T07:21:06;101054.75;;;28.42
67599;BMP280;62026;39.230;9.122;2023-09-12T07:23:32;101057.50;;;28.63
67599;BMP280;62026;39.230;9.122;2023-09-12T07:25:58;101059.38;;;28.71
67599;BMP280;62026;39.230;9.122;2023-09-12T07:28:28;101058.84;;;28.78
67599;BMP280;62026;39.230;9.122;2023-09-12T07:30:54;101058.78;;;28.86
67599;BMP280;62026;39.230;9.122;2023-09-12T07:33:20;101065.47;;;29.10
67599;BMP280;62026;39.230;9.122;2023-09-12T07:35:48;101073.72;;;29.34
67599;BMP280;62026;39.230;9.122;2023-09-12T07:38:14;101078.50;;;29.37
67599;BMP280;62026;39.230;9.122;2023-09-12T07:40:42;101084.44;;;29.39
67599;BMP280;62026;39.230;9.122;2023-09-12T07:43:09;101081.06;;;29.42
67599;BMP280;62026;39.230;9.122;2023-09-12T07:45:36;101081.44;;;29.32
67599;BMP280;62026;39.230;9.122;2023-09-12T07:48:08;101079.53;;;29.65
67599;BMP280;62026;39.230;9.122;2023-09-12T07:50:34;101087.19;;;29.63
67599;BMP280;62026;39.230;9.122;2023-09-12T07:53:00;101084.53;;;29.75
67599;BMP280;62026;39.230;9.122;2023-09-12T07:55:26;101084.03;;;29.61
67599;BMP280;62026;39.230;9.122;2023-09-12T07:57:56;101083.41;;;29.76
67599;BMP280;62026;39.230;9.122;2023-09-12T08:00:22;101084.94;;;29.53
67599;BMP280;62026;39.230;9.122;2023-09-12T08:02:49;101080.69;;;30.01
67599;BMP280;62026;39.230;9.122;2023-09-12T08:05:15;101079.91;;;29.88
67599;BMP280;62026;39.230;9.122;2023-09-12T08:07:42;101091.00;;;29.38
67599;BMP280;62026;39.230;9.122;2023-09-12T08:10:08;101085.22;;;29.72
67599;BMP280;62026;39.230;9.122;2023-09-12T08:12:36;101086.78;;;29.40
67599;BMP280;62026;39.230;9.122;2023-09-12T08:15:05;101086.09;;;29.11
67599;BMP280;62026;39.230;9.122;2023-09-12T08:17:31;101087.38;;;29.46
67599;BMP280;62026;39.230;9.122;2023-09-12T08:19:57;101096.03;;;29.48
67599;BMP280;62026;39.230;9.122;2023-09-12T08:22:23;101095.56;;;29.91
67599;BMP280;62026;39.230;9.122;2023-09-12T08:24:49;101096.56;;;29.87
67599;BMP280;62026;39.230;9.122;2023-09-12T08:27:15;101097.72;;;30.22
67599;BMP280;62026;39.230;9.122;2023-09-12T08:29:41;101104.41;;;30.24
67599;BMP280;62026;39.230;9.122;2023-09-12T08:32:09;101095.78;;;30.10
67599;BMP280;62026;39.230;9.122;2023-09-12T08:34:35;101107.03;;;30.45
67599;BMP280;62026;39.230;9.122;2023-09-12T08:37:01;101105.63;;;30.63
67599;BMP280;62026;39.230;9.122;2023-09-12T08:39:40;101100.88;;;31.00
67599;BMP280;62026;39.230;9.122;2023-09-12T08:42:11;101111.81;;;30.48
67599;BMP280;62026;39.230;9.122;2023-09-12T08:44:38;101107.84;;;30.46
67599;BMP280;62026;39.230;9.122;2023-09-12T08:47:07;101106.81;;;30.50
67599;BMP280;62026;39.230;9.122;2023-09-12T08:49:35;101100.44;;;30.46
67599;BMP280;62026;39.230;9.122;2023-09-12T08:52:04;101096.97;;;30.34
67599;BMP280;62026;39.230;9.122;2023-09-12T08:54:32;101104.19;;;30.54
67599;BMP280;62026;39.230;9.122;2023-09-12T08:57:01;101102.38;;;30.21
67599;BMP280;62026;39.230;9.122;2023-09-12T08:59:29;101096.38;;;30.04
67599;BMP280;62026;39.230;9.122;2023-09-12T09:01:56;101103.28;;;30.25
67599;BMP280;62026;39.230;9.122;2023-09-12T09:04:24;101101.47;;;30.29
67599;BMP280;62026;39.230;9.122;2023-09-12T09:06:56;101103.16;;;30.46
67599;BMP280;62026;39.230;9.122;2023-09-12T09:09:23;101094.97;;;30.46
67599;BMP280;62026;39.230;9.122;2023-09-12T09:11:54;101100.22;;;30.51
67599;BMP280;62026;39.230;9.122;2023-09-12T09:14:20;101092.50;;;30.41
67599;BMP280;62026;39.230;9.122;2023-09-12T09:16:46;101094.09;;;30.42
67599;BMP280;62026;39.230;9.122;2023-09-12T09:19:12;101083.38;;;30.61
67599;BMP280;62026;39.230;9.122;2023-09-12T09:21:38;101089.03;;;30.81
67599;BMP280;62026;39.230;9.122;2023-09-12T09:24:10;101089.16;;;31.00
67599;BMP280;62026;39.230;9.122;2023-09-12T09:29:17;101087.72;;;30.02
67599;BMP280;62026;39.230;9.122;2023-09-12T09:31:46;101090.69;;;30.45
67599;BMP280;62026;39.230;9.122;2023-09-12T09:34:18;101079.28;;;30.67
67599;BMP280;62026;39.230;9.122;2023-09-12T09:36:52;101089.03;;;30.68
67599;BMP280;62026;39.230;9.122;2023-09-12T09:39:25;101093.53;;;30.89
67599;BMP280;62026;39.230;9.122;2023-09-12T09:41:54;101081.97;;;30.80
67599;BMP280;62026;39.230;9.122;2023-09-12T09:44:25;101070.53;;;30.74
67599;BMP280;62026;39.230;9.122;2023-09-12T09:46:59;101070.13;;;30.60
67599;BMP280;62026;39.230;9.122;2023-09-12T09:49:31;101077.28;;;30.92
67599;BMP280;62026;39.230;9.122;2023-09-12T09:51:57;101083.03;;;31.03
67599;BMP280;62026;39.230;9.122;2023-09-12T09:54:25;101081.91;;;31.04
67599;BMP280;62026;39.230;9.122;2023-09-12T09:56:57;101086.19;;;31.05
67599;BMP280;62026;39.230;9.122;2023-09-12T09:59:26;101077.06;;;31.13
67599;BMP280;62026;39.230;9.122;2023-09-12T10:01:57;101084.34;;;31.21
67599;BMP280;62026;39.230;9.122;2023-09-12T10:04:27;101087.56;;;31.11
67599;BMP280;62026;39.230;9.122;2023-09-12T10:06:56;101085.50;;;31.08
67599;BMP280;62026;39.230;9.122;2023-09-12T10:09:26;101083.25;;;31.10
67599;BMP280;62026;39.230;9.122;2023-09-12T10:11:54;101073.59;;;31.00
67599;BMP280;62026;39.230;9.122;2023-09-12T10:14:23;101073.97;;;30.99
67599;BMP280;62026;39.230;9.122;2023-09-12T10:16:58;101077.56;;;31.31
67599;BMP280;62026;39.230;9.122;2023-09-12T10:19:51;101080.75;;;31.33
67599;BMP280;62026;39.230;9.122;2023-09-12T10:22:37;101085.44;;;30.64
67599;BMP280;62026;39.230;9.122;2023-09-12T10:25:06;101083.78;;;31.59
67599;BMP280;62026;39.230;9.122;2023-09-12T10:27:33;101072.78;;;31.55
67599;BMP280;62026;39.230;9.122;2023-09-12T10:30:02;101075.31;;;31.48
67599;BMP280;62026;39.230;9.122;2023-09-12T10:32:30;101076.09;;;31.33
67599;BMP280;62026;39.230;9.122;2023-09-12T10:34:59;101068.16;;;31.00
67599;BMP280;62026;39.230;9.122;2023-09-12T10:37:26;101072.13;;;31.03
67599;BMP280;62026;39.230;9.122;2023-09-12T10:39:55;101066.22;;;31.01
67599;BMP280;62026;39.230;9.122;2023-09-12T10:42:24;101061.63;;;31.17
67599;BMP280;62026;39.230;9.122;2023-09-12T10:44:51;101063.47;;;29.97
67599;BMP280;62026;39.230;9.122;2023-09-12T10:47:18;101060.59;;;29.93
67599;BMP280;62026;39.230;9.122;2023-09-12T10:49:45;101063.00;;;30.07
67599;BMP280;62026;39.230;9.122;2023-09-12T10:52:24;101053.13;;;29.90
67599;BMP280;62026;39.230;9.122;2023-09-12T10:54:51;101048.44;;;30.39
67599;BMP280;62026;39.230;9.122;2023-09-12T10:57:17;101051.88;;;30.00
67599;BMP280;62026;39.230;9.122;2023-09-12T11:02:34;101050.00;;;30.64
67599;BMP280;62026;39.230;9.122;2023-09-12T11:05:03;101050.75;;;30.13
67599;BMP280;62026;39.230;9.122;2023-09-12T11:12:46;101045.59;;;30.23
67599;BMP280;62026;39.230;9.122;2023-09-12T11:15:13;101042.13;;;30.11
67599;BMP280;62026;39.230;9.122;2023-09-12T11:17:45;101043.00;;;30.15
67599;BMP280;62026;39.230;9.122;2023-09-12T11:20:13;101043.44;;;30.29
67599;BMP280;62026;39.230;9.122;2023-09-12T11:22:46;101035.88;;;29.98
67599;BMP280;62026;39.230;9.122;2023-09-12T11:25:22;101041.31;;;29.98
67599;BMP280;62026;39.230;9.122;2023-09-12T11:30:24;101046.75;;;30.22
67599;BMP280;62026;39.230;9.122;2023-09-12T11:32:53;101040.28;;;30.03
67599;BMP280;62026;39.230;9.122;2023-09-12T11:35:28;101042.56;;;29.76
67599;BMP280;62026;39.230;9.122;2023-09-12T11:37:59;101047.13;;;29.97
67599;BMP280;62026;39.230;9.122;2023-09-12T11:40:47;101044.13;;;30.02
67599;BMP280;62026;39.230;9.122;2023-09-12T11:43:30;101051.88;;;29.88
67599;BMP280;62026;39.230;9.122;2023-09-12T11:45:57;101035.97;;;29.90
67599;BMP280;62026;39.230;9.122;2023-09-12T11:48:24;101046.31;;;29.96
67599;BMP280;62026;39.230;9.122;2023-09-12T11:50:55;101038.56;;;29.86
67599;BMP280;62026;39.230;9.122;2023-09-12T11:53:26;101040.38;;;29.70
67599;BMP280;62026;39.230;9.122;2023-09-12T11:56:00;101037.22;;;29.68
67599;BMP280;62026;39.230;9.122;2023-09-12T11:58:27;101032.78;;;29.75
67599;BMP280;62026;39.230;9.122;2023-09-12T12:00:57;101027.91;;;29.81
67599;BMP280;62026;39.230;9.122;2023-09-12T12:03:25;101025.72;;;29.50
67599;BMP280;62026;39.230;9.122;2023-09-12T12:05:53;101019.88;;;29.97
67599;BMP280;62026;39.230;9.122;2023-09-12T12:08:20;101027.66;;;29.86
67599;BMP280;62026;39.230;9.122;2023-09-12T12:10:51;101026.59;;;30.11
67599;BMP280;62026;39.230;9.122;2023-09-12T12:13:19;101025.53;;;30.04
67599;BMP280;62026;39.230;9.122;2023-09-12T12:15:45;101030.59;;;29.57
67599;BMP280;62026;39.230;9.122;2023-09-12T12:18:12;101024.06;;;29.82
67599;BMP280;62026;39.230;9.122;2023-09-12T12:20:38;101015.53;;;29.71
67599;BMP280;62026;39.230;9.122;2023-09-12T12:23:04;101011.69;;;29.72
67599;BMP280;62026;39.230;9.122;2023-09-12T12:25:34;101013.00;;;29.54
67599;BMP280;62026;39.230;9.122;2023-09-12T12:28:02;101008.88;;;29.24
67599;BMP280;62026;39.230;9.122;2023-09-12T12:30:34;101010.75;;;29.56
67599;BMP280;62026;39.230;9.122;2023-09-12T12:33:09;101012.81;;;29.59
67599;BMP280;62026;39.230;9.122;2023-09-12T12:35:35;101025.31;;;29.39
67599;BMP280;62026;39.230;9.122;2023-09-12T12:38:03;101007.06;;;29.28
67599;BMP280;62026;39.230;9.122;2023-09-12T12:40:29;101016.94;;;29.32
67599;BMP280;62026;39.230;9.122;2023-09-12T12:42:55;101015.44;;;29.23
67599;BMP280;62026;39.230;9.122;2023-09-12T12:45:23;101008.41;;;29.34
67599;BMP280;62026;39.230;9.122;2023-09-12T12:47:59;101009.09;;;29.31
67599;BMP280;62026;39.230;9.122;2023-09-12T12:50:26;101005.13;;;29.28
67599;BMP280;62026;39.230;9.122;2023-09-12T12:52:52;101011.13;;;29.22
67599;BMP280;62026;39.230;9.122;2023-09-12T12:55:21;101022.69;;;29.19
67599;BMP280;62026;39.230;9.122;2023-09-12T12:57:51;101013.81;;;29.10
67599;BMP280;62026;39.230;9.122;2023-09-12T13:00:18;101005.94;;;29.29
67599;BMP280;62026;39.230;9.122;2023-09-12T13:02:45;101009.56;;;29.33
67599;BMP280;62026;39.230;9.122;2023-09-12T13:05:30;101002.31;;;29.37
67599;BMP280;62026;39.230;9.122;2023-09-12T13:07:56;101006.84;;;29.33
67599;BMP280;62026;39.230;9.122;2023-09-12T13:10:23;101013.16;;;29.25
67599;BMP280;62026;39.230;9.122;2023-09-12T13:12:50;101005.44;;;29.15
67599;BMP280;62026;39.230;9.122;2023-09-12T13:15:17;100998.66;;;29.21
67599;BMP280;62026;39.230;9.122;2023-09-12T13:17:44;100999.06;;;29.11
67599;BMP280;62026;39.230;9.122;2023-09-12T13:20:11;101008.88;;;29.24
67599;BMP280;62026;39.230;9.122;2023-09-12T13:22:38;101000.78;;;29.15
67599;BMP280;62026;39.230;9.122;2023-09-12T13:25:06;100996.28;;;29.19
67599;BMP280;62026;39.230;9.122;2023-09-12T13:27:32;100992.38;;;29.08
67599;BMP280;62026;39.230;9.122;2023-09-12T13:29:58;100979.72;;;29.12
67599;BMP280;62026;39.230;9.122;2023-09-12T13:32:24;100987.72;;;29.09
67599;BMP280;62026;39.230;9.122;2023-09-12T13:34:52;100991.16;;;29.18
67599;BMP280;62026;39.230;9.122;2023-09-12T13:37:18;100980.06;;;29.23
67599;BMP280;62026;39.230;9.122;2023-09-12T13:39:45;100976.91;;;29.21
67599;BMP280;62026;39.230;9.122;2023-09-12T13:42:15;100985.78;;;29.30
67599;BMP280;62026;39.230;9.122;2023-09-12T13:44:46;100985.09;;;29.33
67599;BMP280;62026;39.230;9.122;2023-09-12T13:47:12;100974.69;;;29.47
67599;BMP280;62026;39.230;9.122;2023-09-12T13:49:39;100977.19;;;29.52
67599;BMP280;62026;39.230;9.122;2023-09-12T13:52:05;100983.53;;;29.56
67599;BMP280;62026;39.230;9.122;2023-09-12T13:54:31;100992.16;;;29.58
67599;BMP280;62026;39.230;9.122;2023-09-12T13:56:57;100976.97;;;29.45
67599;BMP280;62026;39.230;9.122;2023-09-12T13:59:23;100985.13;;;29.57
67599;BMP280;62026;39.230;9.122;2023-09-12T14:01:49;100978.75;;;29.41
67599;BMP280;62026;39.230;9.122;2023-09-12T14:04:15;100974.66;;;29.35
67599;BMP280;62026;39.230;9.122;2023-09-12T14:06:42;100978.19;;;29.35
67599;BMP280;62026;39.230;9.122;2023-09-12T14:09:08;100979.75;;;29.36
67599;BMP280;62026;39.230;9.122;2023-09-12T14:11:35;100980.75;;;29.20
67599;BMP280;62026;39.230;9.122;2023-09-12T14:14:03;100973.94;;;29.26
67599;BMP280;62026;39.230;9.122;2023-09-12T14:16:29;100968.69;;;29.09